createdAt,value
2019-05-06T00:00:26.549Z,4.30
2019-05-06T00:02:55.687Z,4.35
2019-05-06T00:05:25.646Z,3.92
2019-05-06T00:07:55.064Z,4.53
2019-05-06T00:10:26.477Z,4.37
2019-05-06T00:12:56.081Z,3.87
2019-05-06T00:15:25.437Z,4.37
2019-05-06T00:17:54.552Z,4.42
2019-05-06T00:20:24.303Z,4.50
2019-05-06T00:22:56.677Z,4.20
2019-05-06T00:25:34.883Z,4.13
2019-05-06T00:28:21.787Z,4.20
2019-05-06T00:30:55.858Z,4.27
2019-05-06T00:33:24.282Z,4.22
2019-05-06T00:35:53.851Z,4.22
2019-05-06T00:41:08.795Z,3.90
2019-05-06T00:43:37.911Z,4.25
2019-05-06T00:46:07.209Z,4.30
2019-05-06T00:48:36.437Z,4.12
2019-05-06T00:51:05.647Z,4.33
2019-05-06T00:53:36.707Z,4.40
2019-05-06T00:56:06.000Z,4.60
2019-05-06T00:58:35.131Z,4.20
2019-05-06T01:01:04.779Z,4.10
2019-05-06T01:03:34.757Z,4.15
2019-05-06T01:06:04.085Z,4.10
2019-05-06T01:08:34.882Z,3.98
2019-05-06T01:11:06.263Z,3.95
2019-05-06T01:13:57.578Z,4.63
2019-05-06T01:16:26.705Z,4.40
2019-05-06T01:18:55.805Z,4.40
2019-05-06T01:21:24.992Z,4.50
2019-05-06T01:23:54.589Z,4.40
2019-05-06T01:26:24.363Z,4.45
2019-05-06T01:28:54.526Z,4.60
2019-05-06T01:31:26.002Z,4.40
2019-05-06T01:33:55.082Z,4.50
2019-05-06T01:36:25.034Z,4.47
2019-05-06T01:39:16.395Z,4.62
2019-05-06T01:42:04.600Z,4.50
2019-05-06T01:44:34.015Z,4.72
2019-05-06T01:47:03.780Z,4.50
2019-05-06T01:49:34.058Z,4.80
2019-05-06T01:52:04.087Z,4.80
2019-05-06T01:54:34.409Z,4.80
2019-05-06T01:57:04.444Z,4.67
2019-05-06T01:59:34.211Z,4.80
2019-05-06T02:02:04.426Z,5.10
2019-05-06T02:04:33.910Z,4.90
2019-05-06T02:07:03.819Z,5.10
2019-05-06T02:09:34.272Z,4.87
2019-05-06T02:12:04.552Z,5.00
2019-05-06T02:14:34.217Z,5.30
2019-05-06T02:17:03.815Z,4.90
2019-05-06T02:19:34.796Z,4.80
2019-05-06T02:22:24.126Z,5.07
2019-05-06T02:24:56.884Z,4.83
2019-05-06T02:27:25.996Z,4.97
2019-05-06T02:30:00.984Z,5.05
2019-05-06T02:32:55.428Z,5.10
2019-05-06T02:35:45.651Z,4.80
2019-05-06T02:38:39.739Z,5.50
2019-05-06T02:40:59.552Z,5.10
2019-05-06T02:43:28.703Z,5.00
2019-05-06T02:45:58.343Z,4.95
2019-05-06T02:48:49.241Z,5.60
2019-05-06T02:51:24.167Z,5.50
2019-05-06T02:53:53.777Z,5.50
2019-05-06T02:56:23.972Z,5.90
2019-05-06T02:58:53.845Z,5.40
2019-05-06T03:01:23.491Z,5.70
2019-05-06T03:03:53.559Z,5.70
2019-05-06T03:06:23.794Z,5.50
2019-05-06T03:08:54.094Z,5.80
2019-05-06T03:11:24.115Z,5.20
2019-05-06T03:13:53.857Z,6.08
2019-05-06T03:16:23.893Z,5.87
2019-05-06T03:19:23.777Z,7.30
2019-05-06T03:22:09.682Z,7.28
2019-05-06T03:24:47.204Z,6.40
2019-05-06T03:27:16.321Z,5.20
2019-05-06T03:29:45.431Z,5.30
2019-05-06T03:32:16.482Z,5.25
2019-05-06T03:35:16.390Z,5.30
2019-05-06T03:37:17.400Z,5.45
2019-05-06T03:39:46.891Z,5.40
2019-05-06T03:42:16.646Z,5.30
2019-05-06T03:44:48.985Z,5.20
2019-05-06T03:47:34.425Z,5.50
2019-05-06T03:50:04.732Z,5.50
2019-05-06T03:52:34.415Z,5.55
2019-05-06T03:55:04.279Z,5.10
2019-05-06T03:57:36.124Z,5.62
2019-05-06T04:00:05.237Z,5.60
2019-05-06T04:02:34.505Z,5.07
2019-05-06T04:05:04.249Z,4.97
2019-05-06T04:07:34.242Z,5.22
2019-05-06T04:10:05.546Z,5.80
2019-05-06T04:12:36.766Z,4.78
2019-05-06T04:15:07.116Z,5.15
2019-05-06T04:17:49.094Z,5.15
2019-05-06T04:20:25.441Z,5.20
2019-05-06T04:23:04.084Z,5.20
2019-05-06T04:25:46.508Z,4.70
2019-05-06T04:28:23.868Z,5.37
2019-05-06T04:30:54.837Z,5.10
2019-05-06T04:33:23.695Z,5.42
2019-05-06T04:35:54.040Z,4.90
2019-05-06T04:38:23.973Z,4.90
2019-05-06T04:40:54.382Z,4.60
2019-05-06T04:43:26.912Z,5.05
2019-05-06T04:45:54.443Z,4.90
2019-05-06T04:48:24.077Z,4.80
2019-05-06T04:50:54.126Z,4.55
2019-05-06T04:53:26.839Z,4.80
2019-05-06T04:55:54.518Z,5.20
2019-05-06T04:58:23.704Z,5.30
2019-05-06T05:00:53.298Z,5.00
2019-05-06T05:03:23.037Z,5.08
2019-05-06T05:05:53.112Z,5.30
2019-05-06T05:08:36.655Z,4.90
2019-05-06T05:11:28.552Z,4.70
2019-05-06T05:14:13.584Z,4.70
2019-05-06T05:16:52.843Z,4.50
2019-05-06T05:19:23.077Z,4.33
2019-05-06T05:21:55.607Z,4.60
2019-05-06T05:24:24.756Z,4.90
2019-05-06T05:26:54.206Z,4.40
2019-05-06T05:29:23.336Z,4.53
2019-05-06T05:31:53.092Z,4.40
2019-05-06T05:34:22.583Z,3.92
2019-05-06T05:36:53.081Z,4.55
2019-05-06T05:39:22.344Z,4.40
2019-05-06T05:41:52.827Z,4.50
2019-05-06T05:44:25.757Z,4.10
2019-05-06T05:46:55.005Z,4.30
2019-05-06T05:49:37.862Z,3.98
2019-05-06T05:52:07.089Z,4.00
2019-05-06T05:54:36.334Z,4.30
2019-05-06T05:57:05.464Z,4.10
2019-05-06T05:59:34.650Z,4.20
2019-05-06T06:02:04.082Z,4.72
2019-05-06T06:04:33.356Z,4.47
2019-05-06T06:07:02.938Z,3.80
2019-05-06T06:09:35.217Z,3.98
2019-05-06T06:12:06.580Z,4.60
2019-05-06T06:14:56.211Z,4.28
2019-05-06T06:17:56.920Z,4.95
2019-05-06T06:20:44.109Z,4.20
2019-05-06T06:23:22.554Z,4.30
2019-05-06T06:25:52.906Z,4.10
2019-05-06T06:28:23.478Z,4.25
2019-05-06T06:31:03.068Z,4.40
2019-05-06T06:33:32.967Z,4.73
2019-05-06T06:36:27.435Z,4.25
2019-05-06T06:39:02.149Z,3.70
2019-05-06T06:41:32.320Z,3.83
2019-05-06T06:44:05.011Z,3.80
2019-05-06T06:46:34.288Z,3.70
2019-05-06T06:49:03.768Z,4.40
2019-05-06T06:51:33.199Z,4.20
2019-05-06T06:54:02.709Z,3.75
2019-05-06T06:57:05.117Z,3.92
2019-05-06T06:59:45.346Z,4.50
2019-05-06T07:02:28.218Z,3.40
2019-05-06T07:05:27.560Z,3.90
2019-05-06T07:07:52.917Z,4.00
2019-05-06T07:10:39.536Z,4.30
2019-05-06T07:13:08.768Z,3.62
2019-05-06T07:15:37.929Z,3.40
2019-05-06T07:18:07.080Z,3.90
2019-05-06T07:20:43.040Z,3.50
2019-05-06T07:23:24.852Z,3.52
2019-05-06T07:25:55.079Z,3.97
2019-05-06T07:28:24.646Z,4.08
2019-05-06T07:30:54.357Z,3.60
2019-05-06T07:33:23.569Z,3.95
2019-05-06T07:35:53.244Z,3.75
2019-05-06T07:38:23.215Z,3.50
2019-05-06T07:40:58.476Z,3.50
2019-05-06T07:43:52.979Z,3.47
2019-05-06T07:46:35.887Z,3.30
2019-05-06T07:49:05.012Z,3.20
2019-05-06T07:51:35.953Z,2.77
2019-05-06T07:54:05.159Z,2.45
2019-05-06T07:56:34.286Z,3.00
2019-05-06T07:59:09.370Z,2.90
2019-05-06T08:01:43.914Z,2.70
2019-05-06T08:04:12.214Z,2.58
2019-05-06T08:06:42.639Z,2.35
2019-05-06T08:09:13.030Z,2.90
2019-05-06T08:11:42.499Z,2.70
2019-05-06T08:14:13.027Z,2.83
2019-05-06T08:16:48.785Z,2.75
2019-05-06T08:19:18.033Z,2.60
2019-05-06T08:21:49.093Z,2.43
2019-05-06T08:24:18.247Z,2.00
2019-05-06T08:26:47.508Z,2.20
2019-05-06T08:29:16.693Z,2.60
2019-05-06T08:31:45.817Z,2.15
2019-05-06T08:34:14.944Z,2.40
2019-05-06T08:37:12.228Z,2.60
2019-05-06T08:39:45.371Z,2.22
2019-05-06T08:42:13.517Z,2.60
2019-05-06T08:44:42.892Z,2.60
2019-05-06T08:47:13.280Z,2.30
2019-05-06T08:50:02.353Z,2.50
2019-05-06T08:52:52.144Z,2.50
2019-05-06T08:55:28.369Z,2.25
2019-05-06T08:57:57.537Z,2.20
2019-05-06T09:00:26.929Z,2.50
2019-05-06T09:02:56.118Z,2.50
2019-05-06T09:05:25.271Z,2.40
2019-05-06T09:07:54.406Z,2.33
2019-05-06T09:10:23.510Z,2.60
2019-05-06T09:12:53.784Z,2.40
2019-05-06T09:15:22.942Z,2.22
2019-05-06T09:17:52.665Z,2.30
2019-05-06T09:20:23.384Z,2.22
2019-05-06T09:22:52.643Z,2.33
2019-05-06T09:25:23.120Z,2.10
2019-05-06T09:28:13.175Z,2.72
2019-05-06T09:30:47.219Z,2.45
2019-05-06T09:33:18.919Z,2.30
2019-05-06T09:35:48.087Z,2.20
2019-05-06T09:38:17.239Z,2.45
2019-05-06T09:40:46.374Z,2.50
2019-05-06T09:43:15.499Z,2.45
2019-05-06T09:45:44.603Z,2.50
2019-05-06T09:48:19.511Z,2.20
2019-05-06T09:50:49.000Z,2.10
2019-05-06T09:53:27.172Z,1.95
2019-05-06T09:56:15.368Z,2.40
2019-05-06T09:58:45.050Z,3.00
2019-05-06T10:01:14.947Z,2.60
2019-05-06T10:03:44.133Z,2.37
2019-05-06T10:06:13.299Z,2.50
2019-05-06T10:08:42.470Z,2.67
2019-05-06T10:11:11.628Z,2.57
2019-05-06T10:13:42.947Z,2.35
2019-05-06T10:16:13.004Z,2.20
2019-05-06T10:18:42.261Z,2.20
2019-05-06T10:21:12.923Z,2.17
2019-05-06T10:23:42.474Z,2.45
2019-05-06T10:26:13.014Z,2.60
2019-05-06T10:28:52.297Z,2.50
2019-05-06T10:31:21.962Z,2.80
2019-05-06T10:34:09.253Z,2.62
2019-05-06T10:36:53.307Z,2.40
2019-05-06T10:39:26.017Z,2.22
2019-05-06T10:42:13.070Z,2.30
2019-05-06T10:44:49.271Z,2.60
2019-05-06T10:47:18.430Z,2.40
2019-05-06T10:49:47.561Z,2.40
2019-05-06T10:52:30.465Z,2.40
2019-05-06T10:55:03.339Z,2.70
2019-05-06T10:57:40.437Z,2.80
2019-05-06T11:00:12.309Z,2.47
2019-05-06T11:03:02.918Z,2.30
2019-05-06T11:05:34.278Z,2.45
2019-05-06T11:08:03.420Z,2.30
2019-05-06T11:10:40.844Z,2.10
2019-05-06T11:13:03.599Z,2.47
2019-05-06T11:15:33.087Z,2.30
2019-05-06T11:18:04.807Z,2.20
2019-05-06T11:20:33.565Z,2.30
2019-05-06T11:23:03.068Z,2.70
2019-05-06T11:25:32.426Z,2.60
2019-05-06T11:28:02.978Z,2.70
2019-05-06T11:30:50.033Z,2.63
2019-05-06T11:33:38.853Z,2.50
2019-05-06T11:36:15.154Z,2.67
2019-05-06T11:38:44.621Z,2.70
2019-05-06T11:41:13.807Z,2.50
2019-05-06T11:43:43.002Z,2.50
2019-05-06T11:46:12.358Z,2.25
2019-05-06T11:48:43.134Z,2.50
2019-05-06T11:51:14.225Z,2.70
2019-05-06T11:53:43.371Z,2.70
2019-05-06T11:56:12.830Z,2.58
2019-05-06T11:58:53.129Z,2.62
2019-05-06T12:01:32.907Z,2.40
2019-05-06T12:04:02.687Z,5.15
2019-05-06T12:06:33.004Z,3.30
2019-05-06T12:09:06.314Z,3.58
2019-05-06T12:11:33.277Z,3.20
2019-05-06T12:14:02.678Z,4.55
2019-05-06T12:16:33.201Z,4.50
2019-05-06T12:19:03.872Z,4.05
2019-05-06T12:21:33.216Z,3.10
2019-05-06T12:24:03.051Z,3.30
2019-05-06T12:26:32.443Z,3.67
2019-05-06T12:29:02.151Z,3.37
2019-05-06T12:31:32.828Z,4.95
2019-05-06T12:34:02.762Z,10.88
2019-05-06T12:36:32.697Z,7.62
2019-05-06T12:39:25.671Z,2.80
2019-05-06T12:42:13.810Z,5.92
2019-05-06T12:44:55.793Z,4.58
2019-05-06T12:47:43.864Z,3.90
2019-05-06T12:50:13.313Z,3.35
2019-05-06T12:52:44.175Z,4.10
2019-05-06T12:55:20.573Z,3.08
2019-05-06T12:57:44.582Z,3.00
2019-05-06T13:00:14.278Z,3.20
2019-05-06T13:02:43.907Z,3.00
2019-05-06T13:05:13.633Z,3.25
2019-05-06T13:07:46.071Z,3.00
2019-05-06T13:10:18.441Z,2.70
2019-05-06T13:12:53.896Z,3.43
2019-05-06T13:15:24.435Z,3.10
2019-05-06T13:17:53.277Z,3.12
2019-05-06T13:20:22.978Z,3.57
2019-05-06T13:22:58.509Z,3.08
2019-05-06T13:25:27.622Z,3.10
2019-05-06T13:27:56.958Z,3.12
2019-05-06T13:30:26.137Z,3.10
2019-05-06T13:33:00.445Z,3.27
2019-05-06T13:35:29.906Z,2.80
2019-05-06T13:37:59.070Z,3.05
2019-05-06T13:40:28.225Z,3.00
2019-05-06T13:43:15.288Z,3.22
2019-05-06T13:45:46.418Z,3.40
2019-05-06T13:48:24.705Z,3.00
2019-05-06T13:50:56.918Z,2.90
2019-05-06T13:53:38.740Z,2.90
2019-05-06T13:55:57.026Z,3.10
2019-05-06T13:58:26.169Z,2.80
2019-05-06T14:00:56.190Z,3.10
2019-05-06T14:03:25.469Z,3.10
2019-05-06T14:05:54.709Z,2.70
2019-05-06T14:08:23.900Z,3.20
2019-05-06T14:10:59.578Z,3.40
2019-05-06T14:13:24.002Z,3.20
2019-05-06T14:15:53.140Z,3.10
2019-05-06T14:18:22.653Z,3.00
2019-05-06T14:20:52.211Z,2.90
2019-05-06T14:23:22.042Z,3.02
2019-05-06T14:26:22.983Z,3.00
2019-05-06T14:29:05.445Z,2.60
2019-05-06T14:31:38.325Z,2.70
2019-05-06T14:34:07.695Z,2.90
2019-05-06T14:36:36.946Z,2.90
2019-05-06T14:39:09.496Z,3.20
2019-05-06T14:41:44.112Z,3.02
2019-05-06T14:44:12.228Z,2.83
2019-05-06T14:46:59.282Z,2.80
2019-05-06T14:49:28.586Z,2.65
2019-05-06T14:51:57.792Z,2.90
2019-05-06T14:54:27.024Z,3.13
2019-05-06T14:57:02.514Z,3.30
2019-05-06T14:59:32.913Z,3.00
2019-05-06T15:02:02.630Z,2.77
2019-05-06T15:04:32.621Z,3.20
2019-05-06T15:07:02.280Z,2.90
2019-05-06T15:09:32.965Z,3.20
2019-05-06T15:12:02.841Z,3.17
2019-05-06T15:14:33.107Z,3.00
2019-05-06T15:17:03.556Z,2.80
2019-05-06T15:19:32.722Z,3.10
2019-05-06T15:22:02.316Z,3.20
2019-05-06T15:24:31.583Z,2.90
2019-05-06T15:27:02.689Z,2.85
2019-05-06T15:29:31.679Z,3.20
2019-05-06T15:32:08.450Z,2.98
2019-05-06T15:34:46.106Z,2.70
2019-05-06T15:37:24.543Z,3.33
2019-05-06T15:39:53.960Z,2.75
2019-05-06T15:42:23.188Z,2.90
2019-05-06T15:44:52.383Z,6.50
2019-05-06T15:47:22.686Z,5.80
2019-05-06T15:49:52.666Z,4.20
2019-05-06T15:52:23.435Z,4.35
2019-05-06T15:54:53.420Z,5.17
2019-05-06T15:57:23.022Z,4.37
2019-05-06T15:59:53.172Z,5.80
2019-05-06T16:02:23.335Z,3.30
2019-05-06T16:04:52.672Z,3.50
2019-05-06T16:07:25.504Z,2.98
2019-05-06T16:09:55.027Z,3.42
2019-05-06T16:12:23.611Z,4.10
2019-05-06T16:14:53.232Z,2.83
2019-05-06T16:17:23.839Z,4.13
2019-05-06T16:19:53.209Z,3.20
2019-05-06T16:22:22.781Z,3.50
2019-05-06T16:24:59.336Z,3.00
2019-05-06T16:27:33.422Z,2.92
2019-05-06T16:30:03.424Z,4.50
2019-05-06T16:32:33.331Z,4.22
2019-05-06T16:35:02.672Z,3.57
2019-05-06T16:37:32.952Z,3.62
2019-05-06T16:40:02.815Z,4.70
2019-05-06T16:42:32.451Z,4.62
2019-05-06T16:45:06.901Z,4.53
2019-05-06T16:47:39.231Z,4.50
2019-05-06T16:50:13.007Z,4.00
2019-05-06T16:52:44.832Z,4.30
2019-05-06T16:55:16.725Z,3.98
2019-05-06T16:57:52.477Z,4.92
2019-05-06T17:00:24.680Z,4.50
2019-05-06T17:03:03.959Z,4.42
2019-05-06T17:05:42.522Z,5.20
2019-05-06T17:08:12.320Z,4.28
2019-05-06T17:10:43.278Z,4.00
2019-05-06T17:13:12.753Z,5.42
2019-05-06T17:15:42.630Z,5.17
2019-05-06T17:18:12.307Z,5.50
2019-05-06T17:20:42.759Z,6.70
2019-05-06T17:23:13.147Z,6.17
2019-05-06T17:25:42.810Z,6.20
2019-05-06T17:28:33.775Z,6.50
2019-05-06T17:31:13.115Z,6.42
2019-05-06T17:33:42.936Z,7.10
2019-05-06T17:36:14.078Z,6.57
2019-05-06T17:38:52.448Z,6.60
2019-05-06T17:41:23.765Z,6.60
2019-05-06T17:43:52.234Z,6.83
2019-05-06T17:46:23.634Z,6.10
2019-05-06T17:49:23.537Z,6.70
2019-05-06T17:52:03.072Z,7.10
2019-05-06T17:54:32.619Z,6.10
2019-05-06T17:57:04.443Z,6.50
2019-05-06T17:59:33.785Z,6.65
2019-05-06T18:02:07.061Z,7.40
2019-05-06T18:04:36.285Z,7.00
2019-05-06T18:07:05.487Z,6.50
2019-05-06T18:09:34.705Z,6.90
2019-05-06T18:12:03.859Z,6.50
2019-05-06T18:14:33.453Z,6.25
2019-05-06T18:17:03.621Z,6.53
2019-05-06T18:19:33.854Z,6.80
2019-05-06T18:22:03.117Z,6.50
2019-05-06T18:24:33.269Z,7.07
2019-05-06T18:27:02.986Z,6.80
2019-05-06T18:29:33.504Z,6.50
2019-05-06T18:32:03.788Z,6.40
2019-05-06T18:34:33.423Z,7.00
2019-05-06T18:37:03.289Z,6.60
2019-05-06T18:39:33.931Z,7.40
2019-05-06T18:42:15.422Z,6.70
2019-05-06T18:44:34.288Z,7.00
2019-05-06T18:47:04.127Z,7.15
2019-05-06T18:49:33.983Z,6.95
2019-05-06T18:52:03.361Z,7.42
2019-05-06T18:54:33.879Z,7.35
2019-05-06T18:57:04.959Z,7.40
2019-05-06T18:59:36.799Z,7.10
2019-05-06T19:02:05.545Z,7.17
2019-05-06T19:04:43.302Z,8.20
2019-05-06T19:07:16.180Z,7.20
2019-05-06T19:10:06.063Z,8.00
2019-05-06T19:12:40.747Z,7.95
2019-05-06T19:15:07.476Z,7.00
2019-05-06T19:17:36.796Z,7.20
2019-05-06T19:20:06.381Z,7.60
2019-05-06T19:22:35.839Z,7.42
2019-05-06T19:25:05.725Z,7.50
2019-05-06T19:27:35.083Z,7.10
2019-05-06T19:30:05.312Z,7.70
2019-05-06T19:32:35.303Z,7.80
2019-05-06T19:35:05.125Z,7.25
2019-05-06T19:37:34.470Z,6.93
2019-05-06T19:40:04.176Z,18.57
2019-05-06T19:42:46.370Z,11.70
2019-05-06T19:45:05.511Z,10.45
2019-05-06T19:47:35.286Z,8.20
2019-05-06T19:50:05.186Z,7.92
2019-05-06T19:52:35.227Z,7.80
2019-05-06T19:55:05.121Z,7.62
2019-05-06T19:57:34.795Z,7.00
2019-05-06T20:00:04.542Z,6.92
2019-05-06T20:02:33.897Z,7.70
2019-05-06T20:05:08.283Z,7.10
2019-05-06T20:07:59.372Z,8.70
2019-05-06T20:10:56.966Z,8.10
2019-05-06T20:13:26.191Z,9.28
2019-05-06T20:15:55.458Z,8.20
2019-05-06T20:18:24.926Z,7.83
2019-05-06T20:20:54.285Z,7.83
2019-05-06T20:23:23.639Z,12.90
2019-05-06T20:25:52.996Z,11.22
2019-05-06T20:28:22.850Z,8.90
2019-05-06T20:30:53.025Z,8.60
2019-05-06T20:33:22.384Z,9.45
2019-05-06T20:35:52.573Z,7.75
2019-05-06T20:38:23.179Z,8.63
2019-05-06T20:40:52.728Z,8.63
2019-05-06T20:43:23.977Z,9.70
2019-05-06T20:45:53.244Z,9.05
2019-05-06T20:48:23.487Z,9.67
2019-05-06T20:50:53.105Z,8.50
2019-05-06T20:53:23.177Z,7.97
2019-05-06T20:55:55.407Z,8.20
2019-05-06T20:58:24.863Z,9.60
2019-05-06T21:00:54.177Z,8.70
2019-05-06T21:03:23.443Z,9.40
2019-05-06T21:05:52.744Z,8.30
2019-05-06T21:08:22.248Z,7.70
2019-05-06T21:10:52.948Z,7.20
2019-05-06T21:13:31.776Z,7.78
2019-05-06T21:15:53.576Z,7.05
2019-05-06T21:18:23.035Z,6.75
2019-05-06T21:20:52.381Z,7.17
2019-05-06T21:23:23.345Z,7.17
2019-05-06T21:25:52.656Z,7.90
2019-05-06T21:28:23.785Z,7.37
2019-05-06T21:30:53.377Z,7.70
2019-05-06T21:33:22.632Z,7.67
2019-05-06T21:35:52.341Z,7.40
2019-05-06T21:38:22.754Z,8.78
2019-05-06T21:40:52.564Z,8.43
2019-05-06T21:43:22.669Z,8.60
2019-05-06T21:45:54.137Z,7.95
2019-05-06T21:48:23.379Z,7.90
2019-05-06T21:50:52.699Z,16.73
2019-05-06T21:53:23.081Z,9.80
2019-05-06T21:55:52.693Z,8.08
2019-05-06T21:58:23.169Z,7.70
2019-05-06T22:00:57.803Z,7.90
2019-05-06T22:03:27.121Z,6.85
2019-05-06T22:05:56.389Z,8.73
2019-05-06T22:08:25.726Z,11.75
2019-05-06T22:10:55.120Z,15.28
2019-05-06T22:13:24.451Z,18.17
2019-05-06T22:15:53.680Z,10.05
2019-05-06T22:18:23.023Z,14.43
2019-05-06T22:21:31.921Z,9.53
2019-05-06T22:24:05.664Z,6.40
2019-05-06T22:26:34.979Z,6.08
2019-05-06T22:29:04.636Z,5.87
2019-05-06T22:31:33.850Z,5.72
2019-05-06T22:34:03.064Z,5.35
2019-05-06T22:36:33.546Z,5.65
2019-05-06T22:39:02.806Z,5.50
2019-05-06T22:41:32.729Z,5.50
2019-05-06T22:44:13.015Z,5.85
2019-05-06T22:46:33.095Z,5.57
2019-05-06T22:49:02.596Z,5.53
2019-05-06T22:51:32.434Z,5.20
2019-05-06T22:54:02.668Z,5.65
2019-05-06T22:56:32.637Z,5.30
2019-05-06T22:59:03.244Z,4.80
2019-05-06T23:01:54.276Z,5.17
2019-05-06T23:04:24.804Z,5.40
2019-05-06T23:06:54.089Z,5.23
2019-05-06T23:09:24.995Z,5.23
2019-05-06T23:11:54.440Z,4.80
2019-05-06T23:14:31.360Z,4.90
2019-05-06T23:16:54.607Z,5.00
2019-05-06T23:19:24.493Z,5.30
2019-05-06T23:21:53.827Z,5.10
2019-05-06T23:24:23.063Z,5.00
2019-05-06T23:26:54.346Z,4.90
2019-05-06T23:29:23.299Z,4.85
2019-05-06T23:31:52.517Z,4.92
2019-05-06T23:34:23.111Z,5.05
2019-05-06T23:37:25.915Z,5.40
2019-05-06T23:40:39.788Z,4.60
2019-05-06T23:43:45.161Z,4.90
2019-05-06T23:46:52.753Z,4.60
2019-05-06T23:49:58.094Z,5.42
2019-05-06T23:53:03.272Z,4.72
2019-05-06T23:56:08.380Z,5.47
2019-05-06T23:58:37.569Z,4.80
